sensor_id;sensor_type;location;lat;lon;timestamp;P1;durP1;ratioP1;P2;durP2;ratioP2
3712;SDS011;1872;51.406;6.856;2023-03-12T00:01:23;9.97;;;8.00;;
3712;SDS011;1872;51.406;6.856;2023-03-12T00:03:51;10.60;;;7.47;;
3712;SDS011;1872;51.406;6.856;2023-03-12T00:06:18;10.87;;;7.70;;
3712;SDS011;1872;51.406;6.856;2023-03-12T00:08:45;7.50;;;6.80;;
3712;SDS011;1872;51.406;6.856;2023-03-12T00:11:13;7.60;;;6.90;;
3712;SDS011;1872;51.406;6.856;2023-03-12T00:13:41;8.47;;;6.97;;
3712;SDS011;1872;51.406;6.856;2023-03-12T00:16:09;8.80;;;7.10;;
3712;SDS011;1872;51.406;6.856;2023-03-12T00:18:36;7.50;;;6.67;;
3712;SDS011;1872;51.406;6.856;2023-03-12T00:21:02;9.70;;;6.30;;
3712;SDS011;1872;51.406;6.856;2023-03-12T00:23:29;6.80;;;6.20;;
3712;SDS011;1872;51.406;6.856;2023-03-12T00:26:02;7.93;;;5.73;;
3712;SDS011;1872;51.406;6.856;2023-03-12T00:28:30;6.90;;;6.23;;
3712;SDS011;1872;51.406;6.856;2023-03-12T00:30:56;6.03;;;5.40;;
3712;SDS011;1872;51.406;6.856;2023-03-12T00:33:22;7.37;;;6.20;;
3712;SDS011;1872;51.406;6.856;2023-03-12T00:35:49;6.90;;;6.20;;
3712;SDS011;1872;51.406;6.856;2023-03-12T00:38:15;6.90;;;6.30;;
3712;SDS011;1872;51.406;6.856;2023-03-12T00:40:40;6.23;;;5.63;;
3712;SDS011;1872;51.406;6.856;2023-03-12T00:43:06;5.60;;;5.10;;
3712;SDS011;1872;51.406;6.856;2023-03-12T00:45:31;6.60;;;5.20;;
3712;SDS011;1872;51.406;6.856;2023-03-12T00:47:57;5.93;;;5.30;;
3712;SDS011;1872;51.406;6.856;2023-03-12T00:50:23;6.00;;;5.50;;
3712;SDS011;1872;51.406;6.856;2023-03-12T00:52:48;8.00;;;4.37;;
3712;SDS011;1872;51.406;6.856;2023-03-12T00:55:14;5.40;;;4.90;;
3712;SDS011;1872;51.406;6.856;2023-03-12T00:57:40;7.43;;;4.80;;
3712;SDS011;1872;51.406;6.856;2023-03-12T01:00:05;5.37;;;4.87;;
3712;SDS011;1872;51.406;6.856;2023-03-12T01:02:35;5.00;;;4.57;;
3712;SDS011;1872;51.406;6.856;2023-03-12T01:05:01;5.40;;;4.30;;
3712;SDS011;1872;51.406;6.856;2023-03-12T01:07:27;6.50;;;4.73;;
3712;SDS011;1872;51.406;6.856;2023-03-12T01:09:54;6.83;;;4.67;;
3712;SDS011;1872;51.406;6.856;2023-03-12T01:12:19;4.73;;;4.00;;
3712;SDS011;1872;51.406;6.856;2023-03-12T01:14:45;4.27;;;3.87;;
3712;SDS011;1872;51.406;6.856;2023-03-12T01:17:11;4.43;;;4.03;;
3712;SDS011;1872;51.406;6.856;2023-03-12T01:19:36;4.70;;;4.23;;
3712;SDS011;1872;51.406;6.856;2023-03-12T01:22:02;6.30;;;4.60;;
3712;SDS011;1872;51.406;6.856;2023-03-12T01:24:28;4.97;;;4.57;;
3712;SDS011;1872;51.406;6.856;2023-03-12T01:26:54;4.77;;;4.47;;
3712;SDS011;1872;51.406;6.856;2023-03-12T01:29:20;5.17;;;4.30;;
3712;SDS011;1872;51.406;6.856;2023-03-12T01:31:46;4.83;;;4.43;;
3712;SDS011;1872;51.406;6.856;2023-03-12T01:34:12;5.00;;;4.60;;
3712;SDS011;1872;51.406;6.856;2023-03-12T01:36:38;5.37;;;4.33;;
3712;SDS011;1872;51.406;6.856;2023-03-12T01:39:03;5.40;;;4.53;;
3712;SDS011;1872;51.406;6.856;2023-03-12T01:41:30;4.57;;;4.17;;
3712;SDS011;1872;51.406;6.856;2023-03-12T01:43:56;5.73;;;4.67;;
3712;SDS011;1872;51.406;6.856;2023-03-12T01:46:30;5.47;;;4.37;;
3712;SDS011;1872;51.406;6.856;2023-03-12T01:49:08;4.90;;;4.50;;
3712;SDS011;1872;51.406;6.856;2023-03-12T01:54:23;6.50;;;4.10;;
3712;SDS011;1872;51.406;6.856;2023-03-12T01:56:54;5.27;;;3.97;;
3712;SDS011;1872;51.406;6.856;2023-03-12T01:59:24;4.67;;;4.17;;
3712;SDS011;1872;51.406;6.856;2023-03-12T02:01:56;7.90;;;4.60;;
3712;SDS011;1872;51.406;6.856;2023-03-12T02:04:23;4.00;;;3.70;;
3712;SDS011;1872;51.406;6.856;2023-03-12T02:07:04;4.70;;;4.10;;
3712;SDS011;1872;51.406;6.856;2023-03-12T02:09:39;5.27;;;3.90;;
3712;SDS011;1872;51.406;6.856;2023-03-12T02:12:09;5.40;;;4.10;;
3712;SDS011;1872;51.406;6.856;2023-03-12T02:14:35;4.40;;;4.00;;
3712;SDS011;1872;51.406;6.856;2023-03-12T02:17:01;5.33;;;4.13;;
3712;SDS011;1872;51.406;6.856;2023-03-12T02:22:25;5.73;;;4.23;;
3712;SDS011;1872;51.406;6.856;2023-03-12T02:24:53;6.40;;;4.53;;
3712;SDS011;1872;51.406;6.856;2023-03-12T02:27:27;4.27;;;3.97;;
3712;SDS011;1872;51.406;6.856;2023-03-12T02:29:57;5.47;;;4.23;;
3712;SDS011;1872;51.406;6.856;2023-03-12T02:32:25;4.07;;;3.70;;
3712;SDS011;1872;51.406;6.856;2023-03-12T02:34:55;4.60;;;3.87;;
3712;SDS011;1872;51.406;6.856;2023-03-12T02:37:21;5.40;;;4.90;;
3712;SDS011;1872;51.406;6.856;2023-03-12T02:39:50;5.60;;;4.40;;
3712;SDS011;1872;51.406;6.856;2023-03-12T02:42:26;4.20;;;3.83;;
3712;SDS011;1872;51.406;6.856;2023-03-12T02:44:52;4.30;;;3.90;;
3712;SDS011;1872;51.406;6.856;2023-03-12T02:47:18;4.67;;;3.77;;
3712;SDS011;1872;51.406;6.856;2023-03-12T02:49:44;4.93;;;4.40;;
3712;SDS011;1872;51.406;6.856;2023-03-12T02:52:10;5.60;;;3.70;;
3712;SDS011;1872;51.406;6.856;2023-03-12T02:54:36;4.30;;;4.00;;
3712;SDS011;1872;51.406;6.856;2023-03-12T02:57:01;6.33;;;4.30;;
3712;SDS011;1872;51.406;6.856;2023-03-12T02:59:27;4.30;;;3.90;;
3712;SDS011;1872;51.406;6.856;2023-03-12T03:01:54;5.10;;;4.70;;
3712;SDS011;1872;51.406;6.856;2023-03-12T03:04:22;5.63;;;4.43;;
3712;SDS011;1872;51.406;6.856;2023-03-12T03:06:48;4.60;;;4.13;;
3712;SDS011;1872;51.406;6.856;2023-03-12T03:09:14;4.50;;;4.10;;
3712;SDS011;1872;51.406;6.856;2023-03-12T03:11:40;4.73;;;4.33;;
3712;SDS011;1872;51.406;6.856;2023-03-12T03:14:06;5.13;;;4.13;;
3712;SDS011;1872;51.406;6.856;2023-03-12T03:16:32;4.23;;;3.83;;
3712;SDS011;1872;51.406;6.856;2023-03-12T03:18:58;5.17;;;4.07;;
3712;SDS011;1872;51.406;6.856;2023-03-12T03:21:24;5.63;;;3.70;;
3712;SDS011;1872;51.406;6.856;2023-03-12T03:23:49;3.80;;;3.50;;
3712;SDS011;1872;51.406;6.856;2023-03-12T03:26:19;4.07;;;3.67;;
3712;SDS011;1872;51.406;6.856;2023-03-12T03:28:47;6.00;;;4.30;;
3712;SDS011;1872;51.406;6.856;2023-03-12T03:31:15;3.83;;;3.53;;
3712;SDS011;1872;51.406;6.856;2023-03-12T03:33:42;5.33;;;4.07;;
3712;SDS011;1872;51.406;6.856;2023-03-12T03:36:07;5.57;;;4.37;;
3712;SDS011;1872;51.406;6.856;2023-03-12T03:38:34;4.70;;;3.90;;
3712;SDS011;1872;51.406;6.856;2023-03-12T03:41:00;4.50;;;4.07;;
3712;SDS011;1872;51.406;6.856;2023-03-12T03:43:26;4.80;;;4.40;;
3712;SDS011;1872;51.406;6.856;2023-03-12T03:45:59;6.07;;;3.60;;
3712;SDS011;1872;51.406;6.856;2023-03-12T03:48:27;4.43;;;3.43;;
3712;SDS011;1872;51.406;6.856;2023-03-12T03:50:53;5.27;;;3.63;;
3712;SDS011;1872;51.406;6.856;2023-03-12T03:53:19;4.13;;;3.73;;
3712;SDS011;1872;51.406;6.856;2023-03-12T03:55:45;4.50;;;3.93;;
3712;SDS011;1872;51.406;6.856;2023-03-12T03:58:11;5.60;;;3.80;;
3712;SDS011;1872;51.406;6.856;2023-03-12T04:00:38;5.53;;;4.03;;
3712;SDS011;1872;51.406;6.856;2023-03-12T04:03:03;7.50;;;3.40;;
3712;SDS011;1872;51.406;6.856;2023-03-12T04:05:29;5.40;;;3.37;;
3712;SDS011;1872;51.406;6.856;2023-03-12T04:07:56;4.13;;;3.70;;
3712;SDS011;1872;51.406;6.856;2023-03-12T04:10:27;5.70;;;4.00;;
3712;SDS011;1872;51.406;6.856;2023-03-12T04:12:53;5.90;;;4.00;;
3712;SDS011;1872;51.406;6.856;2023-03-12T04:15:20;4.00;;;3.60;;
3712;SDS011;1872;51.406;6.856;2023-03-12T04:17:46;4.77;;;3.53;;
3712;SDS011;1872;51.406;6.856;2023-03-12T04:20:11;5.80;;;3.63;;
3712;SDS011;1872;51.406;6.856;2023-03-12T04:22:37;7.47;;;4.33;;
3712;SDS011;1872;51.406;6.856;2023-03-12T04:25:04;3.97;;;3.67;;
3712;SDS011;1872;51.406;6.856;2023-03-12T04:27:31;3.73;;;3.43;;
3712;SDS011;1872;51.406;6.856;2023-03-12T04:29:57;3.90;;;3.27;;
3712;SDS011;1872;51.406;6.856;2023-03-12T04:32:23;5.47;;;4.10;;
3712;SDS011;1872;51.406;6.856;2023-03-12T04:34:49;5.50;;;3.43;;
3712;SDS011;1872;51.406;6.856;2023-03-12T04:37:14;6.70;;;3.90;;
3712;SDS011;1872;51.406;6.856;2023-03-12T04:39:40;3.80;;;3.40;;
3712;SDS011;1872;51.406;6.856;2023-03-12T04:42:07;4.00;;;3.60;;
3712;SDS011;1872;51.406;6.856;2023-03-12T04:44:34;3.40;;;3.10;;
3712;SDS011;1872;51.406;6.856;2023-03-12T04:47:00;5.30;;;3.63;;
3712;SDS011;1872;51.406;6.856;2023-03-12T04:49:28;3.67;;;3.37;;
3712;SDS011;1872;51.406;6.856;2023-03-12T04:51:54;3.93;;;3.53;;
3712;SDS011;1872;51.406;6.856;2023-03-12T04:54:20;6.00;;;4.03;;
3712;SDS011;1872;51.406;6.856;2023-03-12T04:56:46;3.40;;;3.20;;
3712;SDS011;1872;51.406;6.856;2023-03-12T04:59:13;3.87;;;3.57;;
3712;SDS011;1872;51.406;6.856;2023-03-12T05:01:38;9.20;;;4.37;;
3712;SDS011;1872;51.406;6.856;2023-03-12T05:04:04;4.83;;;3.50;;
3712;SDS011;1872;51.406;6.856;2023-03-12T05:06:30;5.00;;;4.50;;
3712;SDS011;1872;51.406;6.856;2023-03-12T05:08:56;3.63;;;3.33;;
3712;SDS011;1872;51.406;6.856;2023-03-12T05:11:22;3.80;;;3.40;;
3712;SDS011;1872;51.406;6.856;2023-03-12T05:13:47;3.93;;;3.53;;
3712;SDS011;1872;51.406;6.856;2023-03-12T05:16:14;6.97;;;3.80;;
3712;SDS011;1872;51.406;6.856;2023-03-12T05:18:40;5.80;;;4.13;;
3712;SDS011;1872;51.406;6.856;2023-03-12T05:21:08;4.90;;;3.70;;
3712;SDS011;1872;51.406;6.856;2023-03-12T05:23:37;4.27;;;3.90;;
3712;SDS011;1872;51.406;6.856;2023-03-12T05:26:06;5.13;;;3.93;;
3712;SDS011;1872;51.406;6.856;2023-03-12T05:28:39;5.30;;;4.10;;
3712;SDS011;1872;51.406;6.856;2023-03-12T05:31:07;4.13;;;3.60;;
3712;SDS011;1872;51.406;6.856;2023-03-12T05:33:34;3.80;;;3.40;;
3712;SDS011;1872;51.406;6.856;2023-03-12T05:36:00;3.83;;;3.53;;
3712;SDS011;1872;51.406;6.856;2023-03-12T05:38:27;4.50;;;3.27;;
3712;SDS011;1872;51.406;6.856;2023-03-12T05:40:53;4.43;;;3.67;;
3712;SDS011;1872;51.406;6.856;2023-03-12T05:43:20;5.87;;;3.97;;
3712;SDS011;1872;51.406;6.856;2023-03-12T05:45:46;5.73;;;3.90;;
3712;SDS011;1872;51.406;6.856;2023-03-12T05:48:13;5.00;;;4.10;;
3712;SDS011;1872;51.406;6.856;2023-03-12T05:50:38;4.87;;;4.00;;
3712;SDS011;1872;51.406;6.856;2023-03-12T05:53:04;4.07;;;3.77;;
3712;SDS011;1872;51.406;6.856;2023-03-12T05:55:33;7.13;;;3.60;;
3712;SDS011;1872;51.406;6.856;2023-03-12T05:57:59;6.20;;;4.23;;
3712;SDS011;1872;51.406;6.856;2023-03-12T06:00:25;5.20;;;4.10;;
3712;SDS011;1872;51.406;6.856;2023-03-12T06:02:51;4.70;;;4.20;;
3712;SDS011;1872;51.406;6.856;2023-03-12T06:05:16;4.13;;;3.73;;
3712;SDS011;1872;51.406;6.856;2023-03-12T06:07:42;4.93;;;3.97;;
3712;SDS011;1872;51.406;6.856;2023-03-12T06:10:08;11.90;;;4.43;;
3712;SDS011;1872;51.406;6.856;2023-03-12T06:12:34;9.63;;;4.43;;
3712;SDS011;1872;51.406;6.856;2023-03-12T06:15:00;4.53;;;4.13;;
3712;SDS011;1872;51.406;6.856;2023-03-12T06:17:27;4.60;;;4.10;;
3712;SDS011;1872;51.406;6.856;2023-03-12T06:19:53;5.10;;;3.90;;
3712;SDS011;1872;51.406;6.856;2023-03-12T06:22:19;6.93;;;4.17;;
3712;SDS011;1872;51.406;6.856;2023-03-12T06:24:46;5.23;;;3.80;;
3712;SDS011;1872;51.406;6.856;2023-03-12T06:27:12;4.77;;;4.30;;
3712;SDS011;1872;51.406;6.856;2023-03-12T06:29:38;6.83;;;4.40;;
3712;SDS011;1872;51.406;6.856;2023-03-12T06:32:04;6.57;;;3.90;;
3712;SDS011;1872;51.406;6.856;2023-03-12T06:34:30;4.23;;;3.40;;
3712;SDS011;1872;51.406;6.856;2023-03-12T06:36:55;6.67;;;4.27;;
3712;SDS011;1872;51.406;6.856;2023-03-12T06:39:21;5.07;;;4.60;;
3712;SDS011;1872;51.406;6.856;2023-03-12T06:41:47;4.97;;;4.27;;
3712;SDS011;1872;51.406;6.856;2023-03-12T06:44:12;6.40;;;4.73;;
3712;SDS011;1872;51.406;6.856;2023-03-12T06:46:38;5.50;;;4.67;;
3712;SDS011;1872;51.406;6.856;2023-03-12T06:49:05;6.73;;;4.10;;
3712;SDS011;1872;51.406;6.856;2023-03-12T06:51:31;6.17;;;4.70;;
3712;SDS011;1872;51.406;6.856;2023-03-12T06:53:56;5.20;;;4.43;;
3712;SDS011;1872;51.406;6.856;2023-03-12T06:56:25;4.40;;;4.00;;
3712;SDS011;1872;51.406;6.856;2023-03-12T06:58:50;4.57;;;3.67;;
3712;SDS011;1872;51.406;6.856;2023-03-12T07:01:16;4.70;;;3.87;;
3712;SDS011;1872;51.406;6.856;2023-03-12T07:03:42;4.47;;;4.07;;
3712;SDS011;1872;51.406;6.856;2023-03-12T07:06:14;6.20;;;4.53;;
3712;SDS011;1872;51.406;6.856;2023-03-12T07:08:41;5.53;;;4.97;;
3712;SDS011;1872;51.406;6.856;2023-03-12T07:11:08;4.33;;;3.80;;
3712;SDS011;1872;51.406;6.856;2023-03-12T07:13:34;5.93;;;4.30;;
3712;SDS011;1872;51.406;6.856;2023-03-12T07:15:59;7.20;;;4.50;;
3712;SDS011;1872;51.406;6.856;2023-03-12T07:18:25;9.03;;;5.27;;
3712;SDS011;1872;51.406;6.856;2023-03-12T07:20:51;8.13;;;4.60;;
3712;SDS011;1872;51.406;6.856;2023-03-12T07:23:17;5.53;;;4.27;;
3712;SDS011;1872;51.406;6.856;2023-03-12T07:25:43;7.27;;;5.27;;
3712;SDS011;1872;51.406;6.856;2023-03-12T07:28:09;5.60;;;4.50;;
3712;SDS011;1872;51.406;6.856;2023-03-12T07:30:36;5.43;;;4.60;;
3712;SDS011;1872;51.406;6.856;2023-03-12T07:33:03;4.77;;;4.37;;
3712;SDS011;1872;51.406;6.856;2023-03-12T07:35:34;3.90;;;3.43;;
3712;SDS011;1872;51.406;6.856;2023-03-12T07:38:00;4.40;;;3.80;;
3712;SDS011;1872;51.406;6.856;2023-03-12T07:40:27;5.40;;;4.23;;
3712;SDS011;1872;51.406;6.856;2023-03-12T07:42:52;5.90;;;5.07;;
3712;SDS011;1872;51.406;6.856;2023-03-12T07:45:18;6.03;;;4.60;;
3712;SDS011;1872;51.406;6.856;2023-03-12T07:47:44;5.00;;;4.40;;
3712;SDS011;1872;51.406;6.856;2023-03-12T07:50:10;9.03;;;5.13;;
3712;SDS011;1872;51.406;6.856;2023-03-12T07:52:37;7.67;;;4.23;;
3712;SDS011;1872;51.406;6.856;2023-03-12T07:55:02;5.70;;;5.00;;
3712;SDS011;1872;51.406;6.856;2023-03-12T07:57:29;5.00;;;4.23;;
3712;SDS011;1872;51.406;6.856;2023-03-12T07:59:55;6.23;;;4.30;;
3712;SDS011;1872;51.406;6.856;2023-03-12T08:02:20;5.60;;;5.10;;
3712;SDS011;1872;51.406;6.856;2023-03-12T08:04:46;5.73;;;4.80;;
3712;SDS011;1872;51.406;6.856;2023-03-12T08:07:12;6.20;;;4.83;;
3712;SDS011;1872;51.406;6.856;2023-03-12T08:09:38;6.70;;;4.67;;
3712;SDS011;1872;51.406;6.856;2023-03-12T08:12:05;8.13;;;5.03;;
3712;SDS011;1872;51.406;6.856;2023-03-12T08:14:32;7.40;;;4.90;;
3712;SDS011;1872;51.406;6.856;2023-03-12T08:16:58;5.57;;;4.93;;
3712;SDS011;1872;51.406;6.856;2023-03-12T08:19:24;6.20;;;4.70;;
3712;SDS011;1872;51.406;6.856;2023-03-12T08:21:50;5.40;;;4.70;;
3712;SDS011;1872;51.406;6.856;2023-03-12T08:24:17;7.97;;;4.77;;
3712;SDS011;1872;51.406;6.856;2023-03-12T08:26:44;7.30;;;5.33;;
3712;SDS011;1872;51.406;6.856;2023-03-12T08:29:10;6.03;;;5.40;;
3712;SDS011;1872;51.406;6.856;2023-03-12T08:31:38;5.77;;;5.17;;
3712;SDS011;1872;51.406;6.856;2023-03-12T08:34:04;5.70;;;5.13;;
3712;SDS011;1872;51.406;6.856;2023-03-12T08:36:29;9.10;;;5.27;;
3712;SDS011;1872;51.406;6.856;2023-03-12T08:38:55;5.90;;;5.10;;
3712;SDS011;1872;51.406;6.856;2023-03-12T08:41:21;7.27;;;5.80;;
3712;SDS011;1872;51.406;6.856;2023-03-12T08:43:46;5.87;;;5.07;;
3712;SDS011;1872;51.406;6.856;2023-03-12T08:46:12;6.37;;;5.03;;
3712;SDS011;1872;51.406;6.856;2023-03-12T08:48:38;5.53;;;4.90;;
3712;SDS011;1872;51.406;6.856;2023-03-12T08:51:05;7.50;;;5.40;;
3712;SDS011;1872;51.406;6.856;2023-03-12T08:53:32;5.97;;;5.30;;
3712;SDS011;1872;51.406;6.856;2023-03-12T08:55:59;6.80;;;5.13;;
3712;SDS011;1872;51.406;6.856;2023-03-12T08:58:26;6.07;;;5.47;;
3712;SDS011;1872;51.406;6.856;2023-03-12T09:00:52;6.30;;;5.70;;
3712;SDS011;1872;51.406;6.856;2023-03-12T09:03:19;9.60;;;6.40;;
3712;SDS011;1872;51.406;6.856;2023-03-12T09:05:46;7.00;;;5.33;;
3712;SDS011;1872;51.406;6.856;2023-03-12T09:08:12;7.13;;;5.90;;
3712;SDS011;1872;51.406;6.856;2023-03-12T09:10:38;7.97;;;6.30;;
3712;SDS011;1872;51.406;6.856;2023-03-12T09:13:05;6.63;;;6.03;;
3712;SDS011;1872;51.406;6.856;2023-03-12T09:15:31;6.93;;;5.30;;
3712;SDS011;1872;51.406;6.856;2023-03-12T09:17:58;8.03;;;5.70;;
3712;SDS011;1872;51.406;6.856;2023-03-12T09:20:24;8.23;;;5.77;;
3712;SDS011;1872;51.406;6.856;2023-03-12T09:22:50;7.03;;;6.37;;
3712;SDS011;1872;51.406;6.856;2023-03-12T09:25:16;7.33;;;6.50;;
3712;SDS011;1872;51.406;6.856;2023-03-12T09:27:44;9.73;;;6.43;;
3712;SDS011;1872;51.406;6.856;2023-03-12T09:30:15;7.57;;;6.23;;
3712;SDS011;1872;51.406;6.856;2023-03-12T09:32:42;7.03;;;6.37;;
3712;SDS011;1872;51.406;6.856;2023-03-12T09:35:11;6.87;;;6.23;;
3712;SDS011;1872;51.406;6.856;2023-03-12T09:37:38;7.40;;;6.70;;
3712;SDS011;1872;51.406;6.856;2023-03-12T09:40:04;7.17;;;6.50;;
3712;SDS011;1872;51.406;6.856;2023-03-12T09:45:13;8.67;;;7.00;;
3712;SDS011;1872;51.406;6.856;2023-03-12T09:47:56;10.73;;;7.43;;
3712;SDS011;1872;51.406;6.856;2023-03-12T09:50:35;9.73;;;7.83;;
3712;SDS011;1872;51.406;6.856;2023-03-12T09:55:52;9.60;;;7.60;;
3712;SDS011;1872;51.406;6.856;2023-03-12T09:58:30;10.53;;;7.57;;
3712;SDS011;1872;51.406;6.856;2023-03-12T10:00:59;7.77;;;6.97;;
3712;SDS011;1872;51.406;6.856;2023-03-12T10:06:19;9.37;;;8.17;;
3712;SDS011;1872;51.406;6.856;2023-03-12T10:09:05;9.70;;;7.97;;
3712;SDS011;1872;51.406;6.856;2023-03-12T10:11:42;10.50;;;7.63;;
3712;SDS011;1872;51.406;6.856;2023-03-12T10:17:21;8.93;;;7.90;;
3712;SDS011;1872;51.406;6.856;2023-03-12T10:31:11;9.73;;;8.10;;
3712;SDS011;1872;51.406;6.856;2023-03-12T10:33:46;10.63;;;8.33;;
3712;SDS011;1872;51.406;6.856;2023-03-12T10:36:27;9.70;;;8.80;;
3712;SDS011;1872;51.406;6.856;2023-03-12T10:38:53;8.37;;;7.60;;
3712;SDS011;1872;51.406;6.856;2023-03-12T10:41:22;12.20;;;7.57;;
3712;SDS011;1872;51.406;6.856;2023-03-12T10:43:50;9.30;;;7.60;;
3712;SDS011;1872;51.406;6.856;2023-03-12T10:51:59;9.77;;;8.77;;
3712;SDS011;1872;51.406;6.856;2023-03-12T10:54:40;11.37;;;7.90;;
3712;SDS011;1872;51.406;6.856;2023-03-12T10:57:09;9.10;;;7.80;;
3712;SDS011;1872;51.406;6.856;2023-03-12T10:59:36;10.17;;;8.20;;
3712;SDS011;1872;51.406;6.856;2023-03-12T11:05:00;9.83;;;8.43;;
3712;SDS011;1872;51.406;6.856;2023-03-12T11:07:28;8.53;;;7.23;;
3712;SDS011;1872;51.406;6.856;2023-03-12T11:12:34;9.90;;;7.47;;
3712;SDS011;1872;51.406;6.856;2023-03-12T11:18:11;9.80;;;7.67;;
3712;SDS011;1872;51.406;6.856;2023-03-12T11:20:43;12.23;;;9.23;;
3712;SDS011;1872;51.406;6.856;2023-03-12T11:23:16;11.13;;;8.50;;
3712;SDS011;1872;51.406;6.856;2023-03-12T11:25:56;10.63;;;8.73;;
3712;SDS011;1872;51.406;6.856;2023-03-12T11:28:48;10.23;;;8.37;;
3712;SDS011;1872;51.406;6.856;2023-03-12T11:31:36;14.07;;;9.50;;
3712;SDS011;1872;51.406;6.856;2023-03-12T11:34:19;9.87;;;8.83;;
3712;SDS011;1872;51.406;6.856;2023-03-12T11:45:49;10.00;;;8.80;;
3712;SDS011;1872;51.406;6.856;2023-03-12T11:48:50;10.30;;;9.20;;
3712;SDS011;1872;51.406;6.856;2023-03-12T11:51:28;14.90;;;10.70;;
3712;SDS011;1872;51.406;6.856;2023-03-12T11:54:05;14.07;;;10.80;;
3712;SDS011;1872;51.406;6.856;2023-03-12T11:56:33;12.33;;;10.17;;
3712;SDS011;1872;51.406;6.856;2023-03-12T12:01:55;13.60;;;11.10;;
3712;SDS011;1872;51.406;6.856;2023-03-12T12:09:53;13.90;;;10.60;;
3712;SDS011;1872;51.406;6.856;2023-03-12T12:13:03;14.43;;;10.87;;
3712;SDS011;1872;51.406;6.856;2023-03-12T12:32:12;16.73;;;11.57;;
3712;SDS011;1872;51.406;6.856;2023-03-12T12:37:30;14.60;;;11.07;;
3712;SDS011;1872;51.406;6.856;2023-03-12T12:40:20;18.70;;;11.80;;
3712;SDS011;1872;51.406;6.856;2023-03-12T12:45:23;18.10;;;12.60;;
3712;SDS011;1872;51.406;6.856;2023-03-12T12:47:56;14.13;;;11.37;;
3712;SDS011;1872;51.406;6.856;2023-03-12T12:50:43;16.67;;;12.33;;
3712;SDS011;1872;51.406;6.856;2023-03-12T12:53:20;18.90;;;13.20;;
3712;SDS011;1872;51.406;6.856;2023-03-12T13:01:28;19.97;;;12.90;;
3712;SDS011;1872;51.406;6.856;2023-03-12T13:03:57;19.70;;;14.00;;
3712;SDS011;1872;51.406;6.856;2023-03-12T13:06:54;21.80;;;14.10;;
3712;SDS011;1872;51.406;6.856;2023-03-12T13:09:20;20.87;;;13.37;;
3712;SDS011;1872;51.406;6.856;2023-03-12T13:11:47;19.43;;;12.97;;
3712;SDS011;1872;51.406;6.856;2023-03-12T13:14:20;21.17;;;13.47;;
3712;SDS011;1872;51.406;6.856;2023-03-12T13:19:46;19.27;;;14.20;;
3712;SDS011;1872;51.406;6.856;2023-03-12T13:22:28;20.87;;;14.10;;
3712;SDS011;1872;51.406;6.856;2023-03-12T13:30:56;22.23;;;13.07;;
3712;SDS011;1872;51.406;6.856;2023-03-12T13:33:43;19.33;;;13.30;;
3712;SDS011;1872;51.406;6.856;2023-03-12T13:41:53;22.57;;;13.43;;
3712;SDS011;1872;51.406;6.856;2023-03-12T13:49:54;27.97;;;14.60;;
3712;SDS011;1872;51.406;6.856;2023-03-12T13:52:40;21.50;;;13.20;;
3712;SDS011;1872;51.406;6.856;2023-03-12T13:55:24;19.20;;;12.93;;
3712;SDS011;1872;51.406;6.856;2023-03-12T13:58:09;20.83;;;13.90;;
3712;SDS011;1872;51.406;6.856;2023-03-12T14:03:20;22.87;;;13.80;;
3712;SDS011;1872;51.406;6.856;2023-03-12T14:05:54;21.83;;;13.00;;
3712;SDS011;1872;51.406;6.856;2023-03-12T14:14:19;18.53;;;10.83;;
3712;SDS011;1872;51.406;6.856;2023-03-12T14:16:56;21.50;;;9.90;;
3712;SDS011;1872;51.406;6.856;2023-03-12T14:19:26;18.43;;;10.67;;
3712;SDS011;1872;51.406;6.856;2023-03-12T14:21:54;22.17;;;10.40;;
3712;SDS011;1872;51.406;6.856;2023-03-12T14:24:24;15.57;;;9.00;;
3712;SDS011;1872;51.406;6.856;2023-03-12T14:27:04;21.73;;;10.23;;
3712;SDS011;1872;51.406;6.856;2023-03-12T14:29:42;21.30;;;9.40;;
3712;SDS011;1872;51.406;6.856;2023-03-12T14:32:13;15.73;;;9.43;;
3712;SDS011;1872;51.406;6.856;2023-03-12T14:34:45;21.97;;;9.90;;
3712;SDS011;1872;51.406;6.856;2023-03-12T14:37:29;22.00;;;9.50;;
3712;SDS011;1872;51.406;6.856;2023-03-12T14:40:01;15.67;;;9.63;;
3712;SDS011;1872;51.406;6.856;2023-03-12T14:42:33;13.23;;;7.87;;
3712;SDS011;1872;51.406;6.856;2023-03-12T14:47:41;16.20;;;7.50;;
3712;SDS011;1872;51.406;6.856;2023-03-12T14:50:42;17.77;;;10.20;;
3712;SDS011;1872;51.406;6.856;2023-03-12T14:56:01;24.40;;;9.20;;
3712;SDS011;1872;51.406;6.856;2023-03-12T14:58:32;23.73;;;9.17;;
3712;SDS011;1872;51.406;6.856;2023-03-12T15:01:02;21.80;;;9.07;;
3712;SDS011;1872;51.406;6.856;2023-03-12T15:03:30;14.70;;;8.30;;
3712;SDS011;1872;51.406;6.856;2023-03-12T15:06:04;13.37;;;6.47;;
3712;SDS011;1872;51.406;6.856;2023-03-12T15:08:45;8.40;;;6.33;;
3712;SDS011;1872;51.406;6.856;2023-03-12T15:11:13;11.57;;;6.90;;
3712;SDS011;1872;51.406;6.856;2023-03-12T15:13:47;17.20;;;7.40;;
3712;SDS011;1872;51.406;6.856;2023-03-12T15:16:13;16.83;;;7.57;;
3712;SDS011;1872;51.406;6.856;2023-03-12T15:18:39;18.43;;;6.93;;
3712;SDS011;1872;51.406;6.856;2023-03-12T15:21:09;19.90;;;6.07;;
3712;SDS011;1872;51.406;6.856;2023-03-12T15:23:35;14.27;;;6.43;;
3712;SDS011;1872;51.406;6.856;2023-03-12T15:26:14;15.70;;;6.50;;
3712;SDS011;1872;51.406;6.856;2023-03-12T15:28:50;11.83;;;5.77;;
3712;SDS011;1872;51.406;6.856;2023-03-12T15:31:19;18.50;;;7.20;;
3712;SDS011;1872;51.406;6.856;2023-03-12T15:33:57;13.97;;;6.00;;
3712;SDS011;1872;51.406;6.856;2023-03-12T15:36:26;15.43;;;5.67;;
3712;SDS011;1872;51.406;6.856;2023-03-12T15:38:54;14.87;;;5.70;;
3712;SDS011;1872;51.406;6.856;2023-03-12T15:41:28;12.20;;;5.43;;
3712;SDS011;1872;51.406;6.856;2023-03-12T15:46:52;23.00;;;7.73;;
3712;SDS011;1872;51.406;6.856;2023-03-12T15:49:28;12.70;;;5.80;;
3712;SDS011;1872;51.406;6.856;2023-03-12T15:55:29;11.70;;;5.90;;
3712;SDS011;1872;51.406;6.856;2023-03-12T15:57:29;13.13;;;6.30;;
3712;SDS011;1872;51.406;6.856;2023-03-12T16:02:45;13.90;;;5.60;;
3712;SDS011;1872;51.406;6.856;2023-03-12T16:05:17;19.37;;;6.30;;
3712;SDS011;1872;51.406;6.856;2023-03-12T16:07:45;20.17;;;6.80;;
3712;SDS011;1872;51.406;6.856;2023-03-12T16:10:12;15.03;;;5.67;;
3712;SDS011;1872;51.406;6.856;2023-03-12T16:12:40;23.00;;;7.07;;
3712;SDS011;1872;51.406;6.856;2023-03-12T16:15:30;11.50;;;7.53;;
3712;SDS011;1872;51.406;6.856;2023-03-12T16:17:55;12.60;;;5.80;;
3712;SDS011;1872;51.406;6.856;2023-03-12T16:20:20;12.10;;;5.20;;
3712;SDS011;1872;51.406;6.856;2023-03-12T16:22:46;15.87;;;6.33;;
3712;SDS011;1872;51.406;6.856;2023-03-12T16:25:12;16.53;;;5.63;;
3712;SDS011;1872;51.406;6.856;2023-03-12T16:27:40;11.90;;;4.97;;
3712;SDS011;1872;51.406;6.856;2023-03-12T16:30:14;19.67;;;5.57;;
3712;SDS011;1872;51.406;6.856;2023-03-12T16:32:51;14.20;;;6.20;;
3712;SDS011;1872;51.406;6.856;2023-03-12T16:35:17;10.20;;;5.03;;
3712;SDS011;1872;51.406;6.856;2023-03-12T16:37:44;19.40;;;5.80;;
3712;SDS011;1872;51.406;6.856;2023-03-12T16:40:12;15.43;;;5.77;;
3712;SDS011;1872;51.406;6.856;2023-03-12T16:42:39;10.93;;;5.17;;
3712;SDS011;1872;51.406;6.856;2023-03-12T16:45:14;17.40;;;6.10;;
3712;SDS011;1872;51.406;6.856;2023-03-12T16:47:41;20.10;;;6.73;;
3712;SDS011;1872;51.406;6.856;2023-03-12T16:50:12;13.10;;;5.37;;
3712;SDS011;1872;51.406;6.856;2023-03-12T16:52:42;11.40;;;4.70;;
3712;SDS011;1872;51.406;6.856;2023-03-12T16:55:11;14.00;;;5.97;;
3712;SDS011;1872;51.406;6.856;2023-03-12T16:57:39;14.87;;;5.80;;
3712;SDS011;1872;51.406;6.856;2023-03-12T17:00:12;14.20;;;6.10;;
3712;SDS011;1872;51.406;6.856;2023-03-12T17:02:40;14.47;;;5.60;;
3712;SDS011;1872;51.406;6.856;2023-03-12T17:05:06;12.13;;;6.40;;
3712;SDS011;1872;51.406;6.856;2023-03-12T17:07:32;15.63;;;5.70;;
3712;SDS011;1872;51.406;6.856;2023-03-12T17:09:58;12.23;;;4.77;;
3712;SDS011;1872;51.406;6.856;2023-03-12T17:14:57;17.60;;;5.60;;
3712;SDS011;1872;51.406;6.856;2023-03-12T17:17:24;16.00;;;6.10;;
3712;SDS011;1872;51.406;6.856;2023-03-12T17:19:50;16.07;;;5.63;;
3712;SDS011;1872;51.406;6.856;2023-03-12T17:22:19;11.93;;;5.60;;
3712;SDS011;1872;51.406;6.856;2023-03-12T17:24:45;18.20;;;6.17;;
3712;SDS011;1872;51.406;6.856;2023-03-12T17:27:12;15.33;;;6.27;;
3712;SDS011;1872;51.406;6.856;2023-03-12T17:29:38;10.80;;;4.83;;
3712;SDS011;1872;51.406;6.856;2023-03-12T17:32:04;10.00;;;5.73;;
3712;SDS011;1872;51.406;6.856;2023-03-12T17:34:30;12.27;;;5.13;;